sensor_id;sensor_type;location;lat;lon;timestamp;temperature;humidity
37232;DHT22;23125;48.156;15.954;2022-10-31T00:02:07;16.20;63.10
37232;DHT22;23125;48.156;15.954;2022-10-31T00:04:33;16.10;63.10
37232;DHT22;23125;48.156;15.954;2022-10-31T00:06:59;16.10;63.10
37232;DHT22;23125;48.156;15.954;2022-10-31T00:09:25;16.10;63.20
37232;DHT22;23125;48.156;15.954;2022-10-31T00:11:50;16.10;63.30
37232;DHT22;23125;48.156;15.954;2022-10-31T00:14:16;16.10;63.40
37232;DHT22;23125;48.156;15.954;2022-10-31T00:16:42;16.10;63.30
37232;DHT22;23125;48.156;15.954;2022-10-31T00:19:08;16.10;63.20
37232;DHT22;23125;48.156;15.954;2022-10-31T00:21:35;16.10;63.20
37232;DHT22;23125;48.156;15.954;2022-10-31T00:24:01;16.10;63.20
37232;DHT22;23125;48.156;15.954;2022-10-31T00:26:28;16.10;63.30
37232;DHT22;23125;48.156;15.954;2022-10-31T00:28:54;16.10;63.30
37232;DHT22;23125;48.156;15.954;2022-10-31T00:31:20;16.10;63.40
37232;DHT22;23125;48.156;15.954;2022-10-31T00:33:46;16.10;63.40
37232;DHT22;23125;48.156;15.954;2022-10-31T00:36:15;16.10;63.50
37232;DHT22;23125;48.156;15.954;2022-10-31T00:38:42;16.10;63.50
37232;DHT22;23125;48.156;15.954;2022-10-31T00:41:11;16.10;63.50
37232;DHT22;23125;48.156;15.954;2022-10-31T00:43:37;16.20;64.20
37232;DHT22;23125;48.156;15.954;2022-10-31T00:46:04;16.10;63.50
37232;DHT22;23125;48.156;15.954;2022-10-31T00:48:30;16.10;63.40
37232;DHT22;23125;48.156;15.954;2022-10-31T00:50:56;16.20;63.60
37232;DHT22;23125;48.156;15.954;2022-10-31T00:53:22;16.10;63.50
37232;DHT22;23125;48.156;15.954;2022-10-31T00:55:48;16.20;63.60
37232;DHT22;23125;48.156;15.954;2022-10-31T00:58:14;16.20;63.60
37232;DHT22;23125;48.156;15.954;2022-10-31T01:00:40;16.10;63.60
37232;DHT22;23125;48.156;15.954;2022-10-31T01:03:06;16.20;63.60
37232;DHT22;23125;48.156;15.954;2022-10-31T01:05:31;16.20;63.60
37232;DHT22;23125;48.156;15.954;2022-10-31T01:07:58;16.20;63.60
37232;DHT22;23125;48.156;15.954;2022-10-31T01:10:24;16.20;63.70
37232;DHT22;23125;48.156;15.954;2022-10-31T01:12:50;16.20;63.70
37232;DHT22;23125;48.156;15.954;2022-10-31T01:15:21;16.20;63.70
37232;DHT22;23125;48.156;15.954;2022-10-31T01:17:48;16.20;63.70
37232;DHT22;23125;48.156;15.954;2022-10-31T01:20:15;16.20;63.60
37232;DHT22;23125;48.156;15.954;2022-10-31T01:22:41;16.30;63.70
37232;DHT22;23125;48.156;15.954;2022-10-31T01:25:09;16.30;63.70
37232;DHT22;23125;48.156;15.954;2022-10-31T01:27:35;16.20;63.70
37232;DHT22;23125;48.156;15.954;2022-10-31T01:30:01;16.30;63.80
37232;DHT22;23125;48.156;15.954;2022-10-31T01:32:27;16.30;63.90
37232;DHT22;23125;48.156;15.954;2022-10-31T01:34:54;16.30;63.90
37232;DHT22;23125;48.156;15.954;2022-10-31T01:37:20;16.30;63.90
37232;DHT22;23125;48.156;15.954;2022-10-31T01:39:48;16.30;63.80
37232;DHT22;23125;48.156;15.954;2022-10-31T01:42:19;16.30;63.90
37232;DHT22;23125;48.156;15.954;2022-10-31T01:44:56;16.30;63.90
37232;DHT22;23125;48.156;15.954;2022-10-31T01:47:44;16.30;63.90
37232;DHT22;23125;48.156;15.954;2022-10-31T01:50:15;16.30;63.90
37232;DHT22;23125;48.156;15.954;2022-10-31T01:52:47;16.30;63.90
37232;DHT22;23125;48.156;15.954;2022-10-31T01:55:37;16.30;63.90
37232;DHT22;23125;48.156;15.954;2022-10-31T01:58:12;16.30;64.00
37232;DHT22;23125;48.156;15.954;2022-10-31T02:00:39;16.20;63.90
37232;DHT22;23125;48.156;15.954;2022-10-31T02:03:07;16.30;64.00
37232;DHT22;23125;48.156;15.954;2022-10-31T02:05:33;16.30;64.00
37232;DHT22;23125;48.156;15.954;2022-10-31T02:08:08;16.30;64.10
37232;DHT22;23125;48.156;15.954;2022-10-31T02:10:36;16.20;64.00
37232;DHT22;23125;48.156;15.954;2022-10-31T02:13:06;16.20;64.00
37232;DHT22;23125;48.156;15.954;2022-10-31T02:15:33;16.20;64.00
37232;DHT22;23125;48.156;15.954;2022-10-31T02:18:00;16.20;64.00
37232;DHT22;23125;48.156;15.954;2022-10-31T02:20:33;16.20;64.10
37232;DHT22;23125;48.156;15.954;2022-10-31T02:26:51;16.20;64.20
37232;DHT22;23125;48.156;15.954;2022-10-31T02:29:33;16.20;64.20
37232;DHT22;23125;48.156;15.954;2022-10-31T02:32:18;16.20;64.10
37232;DHT22;23125;48.156;15.954;2022-10-31T02:35:01;16.20;64.20
37232;DHT22;23125;48.156;15.954;2022-10-31T02:37:39;16.20;64.20
37232;DHT22;23125;48.156;15.954;2022-10-31T02:43:26;16.20;64.20
37232;DHT22;23125;48.156;15.954;2022-10-31T02:48:33;16.20;64.30
37232;DHT22;23125;48.156;15.954;2022-10-31T02:51:04;16.20;64.20
37232;DHT22;23125;48.156;15.954;2022-10-31T02:53:34;16.20;64.20
37232;DHT22;23125;48.156;15.954;2022-10-31T02:56:15;16.20;64.20
37232;DHT22;23125;48.156;15.954;2022-10-31T02:59:01;16.20;64.20
37232;DHT22;23125;48.156;15.954;2022-10-31T03:07:11;16.20;64.20
37232;DHT22;23125;48.156;15.954;2022-10-31T03:12:37;16.20;64.20
37232;DHT22;23125;48.156;15.954;2022-10-31T03:17:58;16.20;64.20
37232;DHT22;23125;48.156;15.954;2022-10-31T03:20:37;16.20;64.20
37232;DHT22;23125;48.156;15.954;2022-10-31T03:23:09;16.10;64.10
37232;DHT22;23125;48.156;15.954;2022-10-31T03:25:38;16.10;64.10
37232;DHT22;23125;48.156;15.954;2022-10-31T03:28:06;16.10;64.10
37232;DHT22;23125;48.156;15.954;2022-10-31T03:30:35;16.20;64.10
37232;DHT22;23125;48.156;15.954;2022-10-31T03:33:06;16.10;64.00
37232;DHT22;23125;48.156;15.954;2022-10-31T03:35:35;16.10;64.10
37232;DHT22;23125;48.156;15.954;2022-10-31T03:38:02;16.10;64.00
37232;DHT22;23125;48.156;15.954;2022-10-31T03:40:30;16.10;64.00
37232;DHT22;23125;48.156;15.954;2022-10-31T03:43:04;16.10;64.00
37232;DHT22;23125;48.156;15.954;2022-10-31T03:45:39;16.10;64.00
37232;DHT22;23125;48.156;15.954;2022-10-31T03:48:06;16.00;63.90
37232;DHT22;23125;48.156;15.954;2022-10-31T03:50:46;16.10;63.90
37232;DHT22;23125;48.156;15.954;2022-10-31T03:53:24;16.00;63.80
37232;DHT22;23125;48.156;15.954;2022-10-31T03:56:02;16.00;63.70
37232;DHT22;23125;48.156;15.954;2022-10-31T03:58:37;16.00;63.70
37232;DHT22;23125;48.156;15.954;2022-10-31T04:01:06;16.00;63.80
37232;DHT22;23125;48.156;15.954;2022-10-31T04:03:36;15.90;63.70
37232;DHT22;23125;48.156;15.954;2022-10-31T04:06:07;15.90;63.80
37232;DHT22;23125;48.156;15.954;2022-10-31T04:08:40;15.90;63.80
37232;DHT22;23125;48.156;15.954;2022-10-31T04:11:08;15.90;63.90
37232;DHT22;23125;48.156;15.954;2022-10-31T04:13:37;15.90;63.80
37232;DHT22;23125;48.156;15.954;2022-10-31T04:16:05;15.90;63.80
37232;DHT22;23125;48.156;15.954;2022-10-31T04:18:31;15.90;63.90
37232;DHT22;23125;48.156;15.954;2022-10-31T04:21:05;15.80;63.80
37232;DHT22;23125;48.156;15.954;2022-10-31T04:23:32;15.80;63.80
37232;DHT22;23125;48.156;15.954;2022-10-31T04:25:59;15.80;63.80
37232;DHT22;23125;48.156;15.954;2022-10-31T04:28:24;15.80;63.80
37232;DHT22;23125;48.156;15.954;2022-10-31T04:30:51;15.80;63.80
37232;DHT22;23125;48.156;15.954;2022-10-31T04:33:17;15.80;63.70
37232;DHT22;23125;48.156;15.954;2022-10-31T04:35:44;15.80;63.70
37232;DHT22;23125;48.156;15.954;2022-10-31T04:38:10;15.80;63.80
37232;DHT22;23125;48.156;15.954;2022-10-31T04:40:36;15.80;63.80
37232;DHT22;23125;48.156;15.954;2022-10-31T04:43:02;15.70;63.70
37232;DHT22;23125;48.156;15.954;2022-10-31T04:45:28;15.70;63.70
37232;DHT22;23125;48.156;15.954;2022-10-31T04:47:53;15.80;63.80
37232;DHT22;23125;48.156;15.954;2022-10-31T04:50:19;15.70;63.70
37232;DHT22;23125;48.156;15.954;2022-10-31T04:52:46;15.70;63.50
37232;DHT22;23125;48.156;15.954;2022-10-31T04:55:13;15.70;63.50
37232;DHT22;23125;48.156;15.954;2022-10-31T04:57:43;15.60;63.50
37232;DHT22;23125;48.156;15.954;2022-10-31T05:00:11;15.60;63.50
37232;DHT22;23125;48.156;15.954;2022-10-31T05:02:57;15.60;63.60
37232;DHT22;23125;48.156;15.954;2022-10-31T05:05:26;15.50;63.70
37232;DHT22;23125;48.156;15.954;2022-10-31T05:07:53;15.50;63.70
37232;DHT22;23125;48.156;15.954;2022-10-31T05:10:23;15.50;63.80
37232;DHT22;23125;48.156;15.954;2022-10-31T05:12:54;15.50;63.90
37232;DHT22;23125;48.156;15.954;2022-10-31T05:15:22;15.50;63.80
37232;DHT22;23125;48.156;15.954;2022-10-31T05:17:50;15.50;63.80
37232;DHT22;23125;48.156;15.954;2022-10-31T05:20:18;15.50;63.80
37232;DHT22;23125;48.156;15.954;2022-10-31T05:22:46;15.50;63.70
37232;DHT22;23125;48.156;15.954;2022-10-31T05:25:12;15.50;63.60
37232;DHT22;23125;48.156;15.954;2022-10-31T05:27:43;15.50;63.70
37232;DHT22;23125;48.156;15.954;2022-10-31T05:30:11;15.50;63.80
37232;DHT22;23125;48.156;15.954;2022-10-31T05:32:40;15.40;63.80
37232;DHT22;23125;48.156;15.954;2022-10-31T05:35:07;15.40;63.70
37232;DHT22;23125;48.156;15.954;2022-10-31T05:37:36;15.40;63.80
37232;DHT22;23125;48.156;15.954;2022-10-31T05:40:07;15.40;63.80
37232;DHT22;23125;48.156;15.954;2022-10-31T05:42:34;15.40;63.90
37232;DHT22;23125;48.156;15.954;2022-10-31T05:45:00;15.40;63.90
37232;DHT22;23125;48.156;15.954;2022-10-31T05:47:26;15.40;64.00
37232;DHT22;23125;48.156;15.954;2022-10-31T05:49:52;15.40;64.00
37232;DHT22;23125;48.156;15.954;2022-10-31T05:52:18;15.40;63.90
37232;DHT22;23125;48.156;15.954;2022-10-31T05:54:44;15.40;64.00
37232;DHT22;23125;48.156;15.954;2022-10-31T05:57:10;15.30;63.90
37232;DHT22;23125;48.156;15.954;2022-10-31T05:59:35;15.30;64.00
37232;DHT22;23125;48.156;15.954;2022-10-31T06:02:02;15.30;64.00
37232;DHT22;23125;48.156;15.954;2022-10-31T06:04:27;15.30;64.10
37232;DHT22;23125;48.156;15.954;2022-10-31T06:06:53;15.30;64.20
37232;DHT22;23125;48.156;15.954;2022-10-31T06:09:19;15.30;64.30
37232;DHT22;23125;48.156;15.954;2022-10-31T06:11:45;15.30;64.30
37232;DHT22;23125;48.156;15.954;2022-10-31T06:14:11;15.40;64.40
37232;DHT22;23125;48.156;15.954;2022-10-31T06:16:36;15.40;64.50
37232;DHT22;23125;48.156;15.954;2022-10-31T06:19:02;15.40;64.50
37232;DHT22;23125;48.156;15.954;2022-10-31T06:21:28;15.40;64.50
37232;DHT22;23125;48.156;15.954;2022-10-31T06:23:54;15.40;64.50
37232;DHT22;23125;48.156;15.954;2022-10-31T06:26:20;15.50;64.50
37232;DHT22;23125;48.156;15.954;2022-10-31T06:28:45;15.50;64.40
37232;DHT22;23125;48.156;15.954;2022-10-31T06:31:11;15.50;64.40
37232;DHT22;23125;48.156;15.954;2022-10-31T06:33:37;15.50;64.50
37232;DHT22;23125;48.156;15.954;2022-10-31T06:36:03;15.50;64.50
37232;DHT22;23125;48.156;15.954;2022-10-31T06:38:29;15.50;64.70
37232;DHT22;23125;48.156;15.954;2022-10-31T06:40:55;15.50;64.70
37232;DHT22;23125;48.156;15.954;2022-10-31T06:43:21;15.50;64.50
37232;DHT22;23125;48.156;15.954;2022-10-31T06:45:47;15.50;64.50
37232;DHT22;23125;48.156;15.954;2022-10-31T06:48:13;15.50;64.50
37232;DHT22;23125;48.156;15.954;2022-10-31T06:50:39;15.60;64.70
37232;DHT22;23125;48.156;15.954;2022-10-31T06:53:05;15.60;64.70
37232;DHT22;23125;48.156;15.954;2022-10-31T06:55:31;15.60;64.80
37232;DHT22;23125;48.156;15.954;2022-10-31T06:57:59;15.60;64.90
37232;DHT22;23125;48.156;15.954;2022-10-31T07:00:27;15.60;64.90
37232;DHT22;23125;48.156;15.954;2022-10-31T07:03:02;15.60;65.10
37232;DHT22;23125;48.156;15.954;2022-10-31T07:05:29;15.70;65.20
37232;DHT22;23125;48.156;15.954;2022-10-31T07:07:59;15.70;65.20
37232;DHT22;23125;48.156;15.954;2022-10-31T07:10:27;15.80;65.20
37232;DHT22;23125;48.156;15.954;2022-10-31T07:13:02;15.80;65.30
37232;DHT22;23125;48.156;15.954;2022-10-31T07:15:32;15.80;65.40
37232;DHT22;23125;48.156;15.954;2022-10-31T07:18:02;15.90;65.50
37232;DHT22;23125;48.156;15.954;2022-10-31T07:20:29;15.90;65.50
37232;DHT22;23125;48.156;15.954;2022-10-31T07:22:55;16.00;65.50
37232;DHT22;23125;48.156;15.954;2022-10-31T07:25:22;16.00;65.50
37232;DHT22;23125;48.156;15.954;2022-10-31T07:27:49;16.10;65.60
37232;DHT22;23125;48.156;15.954;2022-10-31T07:30:15;16.20;65.60
37232;DHT22;23125;48.156;15.954;2022-10-31T07:32:48;16.20;65.50
37232;DHT22;23125;48.156;15.954;2022-10-31T07:35:17;16.30;65.50
37232;DHT22;23125;48.156;15.954;2022-10-31T07:37:43;16.30;65.60
37232;DHT22;23125;48.156;15.954;2022-10-31T07:40:10;16.40;65.50
37232;DHT22;23125;48.156;15.954;2022-10-31T07:42:44;16.40;65.40
37232;DHT22;23125;48.156;15.954;2022-10-31T07:45:13;16.50;65.40
37232;DHT22;23125;48.156;15.954;2022-10-31T07:47:47;16.50;65.30
37232;DHT22;23125;48.156;15.954;2022-10-31T07:50:15;16.50;65.10
37232;DHT22;23125;48.156;15.954;2022-10-31T07:52:42;16.60;65.10
37232;DHT22;23125;48.156;15.954;2022-10-31T07:55:08;16.60;65.30
37232;DHT22;23125;48.156;15.954;2022-10-31T07:57:35;16.70;65.40
37232;DHT22;23125;48.156;15.954;2022-10-31T08:00:09;16.70;65.20
37232;DHT22;23125;48.156;15.954;2022-10-31T08:02:35;16.70;65.20
37232;DHT22;23125;48.156;15.954;2022-10-31T08:05:01;16.80;65.50
37232;DHT22;23125;48.156;15.954;2022-10-31T08:07:28;16.80;65.50
37232;DHT22;23125;48.156;15.954;2022-10-31T08:09:55;16.90;65.50
37232;DHT22;23125;48.156;15.954;2022-10-31T08:12:21;17.00;65.60
37232;DHT22;23125;48.156;15.954;2022-10-31T08:14:47;17.10;65.90
37232;DHT22;23125;48.156;15.954;2022-10-31T08:17:13;17.20;66.20
37232;DHT22;23125;48.156;15.954;2022-10-31T08:19:39;17.30;66.90
37232;DHT22;23125;48.156;15.954;2022-10-31T08:22:05;17.50;66.30
37232;DHT22;23125;48.156;15.954;2022-10-31T08:24:31;17.60;66.90
37232;DHT22;23125;48.156;15.954;2022-10-31T08:26:57;17.70;66.20
37232;DHT22;23125;48.156;15.954;2022-10-31T08:29:22;17.90;66.10
37232;DHT22;23125;48.156;15.954;2022-10-31T08:31:48;18.00;65.70
37232;DHT22;23125;48.156;15.954;2022-10-31T08:34:14;18.10;65.40
37232;DHT22;23125;48.156;15.954;2022-10-31T08:36:40;18.20;65.00
37232;DHT22;23125;48.156;15.954;2022-10-31T08:39:06;18.20;64.90
37232;DHT22;23125;48.156;15.954;2022-10-31T08:41:31;18.40;65.60
37232;DHT22;23125;48.156;15.954;2022-10-31T08:43:57;18.50;65.80
37232;DHT22;23125;48.156;15.954;2022-10-31T08:46:23;18.80;65.60
37232;DHT22;23125;48.156;15.954;2022-10-31T08:48:49;18.90;65.70
37232;DHT22;23125;48.156;15.954;2022-10-31T08:51:15;19.10;65.50
37232;DHT22;23125;48.156;15.954;2022-10-31T08:53:41;19.30;65.40
37232;DHT22;23125;48.156;15.954;2022-10-31T08:56:07;19.40;65.20
37232;DHT22;23125;48.156;15.954;2022-10-31T08:58:33;19.60;64.70
37232;DHT22;23125;48.156;15.954;2022-10-31T09:01:00;19.70;64.00
37232;DHT22;23125;48.156;15.954;2022-10-31T09:03:29;19.80;64.00
37232;DHT22;23125;48.156;15.954;2022-10-31T09:05:58;19.90;63.20
37232;DHT22;23125;48.156;15.954;2022-10-31T09:08:24;19.90;63.10
37232;DHT22;23125;48.156;15.954;2022-10-31T09:10:51;20.00;63.20
37232;DHT22;23125;48.156;15.954;2022-10-31T09:13:18;20.20;63.40
37232;DHT22;23125;48.156;15.954;2022-10-31T09:15:47;20.30;63.40
37232;DHT22;23125;48.156;15.954;2022-10-31T09:18:16;20.50;62.90
37232;DHT22;23125;48.156;15.954;2022-10-31T09:20:43;20.60;62.50
37232;DHT22;23125;48.156;15.954;2022-10-31T09:23:20;20.70;62.20
37232;DHT22;23125;48.156;15.954;2022-10-31T09:25:47;20.90;62.90
37232;DHT22;23125;48.156;15.954;2022-10-31T09:28:15;21.20;63.40
37232;DHT22;23125;48.156;15.954;2022-10-31T09:30:41;21.40;63.40
37232;DHT22;23125;48.156;15.954;2022-10-31T09:33:11;21.70;63.20
37232;DHT22;23125;48.156;15.954;2022-10-31T09:35:38;22.00;62.70
37232;DHT22;23125;48.156;15.954;2022-10-31T09:38:08;22.40;62.10
37232;DHT22;23125;48.156;15.954;2022-10-31T09:40:45;22.60;61.40
37232;DHT22;23125;48.156;15.954;2022-10-31T09:51:42;23.90;59.60
37232;DHT22;23125;48.156;15.954;2022-10-31T09:54:13;24.10;57.50
37232;DHT22;23125;48.156;15.954;2022-10-31T09:56:41;24.20;57.10
37232;DHT22;23125;48.156;15.954;2022-10-31T09:59:33;24.40;57.10
37232;DHT22;23125;48.156;15.954;2022-10-31T10:04:44;24.70;56.60
37232;DHT22;23125;48.156;15.954;2022-10-31T10:10:17;25.20;55.70
37232;DHT22;23125;48.156;15.954;2022-10-31T10:13:05;25.40;55.30
37232;DHT22;23125;48.156;15.954;2022-10-31T10:16:06;25.50;54.70
37232;DHT22;23125;48.156;15.954;2022-10-31T10:21:33;25.80;53.90
37232;DHT22;23125;48.156;15.954;2022-10-31T10:27:03;26.10;53.10
37232;DHT22;23125;48.156;15.954;2022-10-31T10:29:49;26.20;52.50
37232;DHT22;23125;48.156;15.954;2022-10-31T10:32:27;26.30;52.10
37232;DHT22;23125;48.156;15.954;2022-10-31T10:35:02;26.30;50.80
37232;DHT22;23125;48.156;15.954;2022-10-31T10:37:38;26.30;50.70
37232;DHT22;23125;48.156;15.954;2022-10-31T10:40:16;26.20;49.90
37232;DHT22;23125;48.156;15.954;2022-10-31T10:42:50;26.10;50.00
37232;DHT22;23125;48.156;15.954;2022-10-31T10:45:38;26.20;50.20
37232;DHT22;23125;48.156;15.954;2022-10-31T10:48:55;26.30;50.20
37232;DHT22;23125;48.156;15.954;2022-10-31T10:59:45;26.50;49.20
37232;DHT22;23125;48.156;15.954;2022-10-31T11:02:19;26.50;49.10
37232;DHT22;23125;48.156;15.954;2022-10-31T11:04:50;26.50;48.40
37232;DHT22;23125;48.156;15.954;2022-10-31T11:07:17;26.40;48.00
37232;DHT22;23125;48.156;15.954;2022-10-31T11:09:44;26.30;48.00
37232;DHT22;23125;48.156;15.954;2022-10-31T11:12:30;26.20;47.90
37232;DHT22;23125;48.156;15.954;2022-10-31T11:15:02;26.10;47.60
37232;DHT22;23125;48.156;15.954;2022-10-31T11:17:33;26.00;47.60
37232;DHT22;23125;48.156;15.954;2022-10-31T11:22:30;25.80;47.30
37232;DHT22;23125;48.156;15.954;2022-10-31T11:24:56;25.60;47.20
37232;DHT22;23125;48.156;15.954;2022-10-31T11:27:24;25.50;47.20
37232;DHT22;23125;48.156;15.954;2022-10-31T11:29:51;25.40;47.10
37232;DHT22;23125;48.156;15.954;2022-10-31T11:34:47;25.10;47.00
37232;DHT22;23125;48.156;15.954;2022-10-31T11:37:27;25.00;47.00
37232;DHT22;23125;48.156;15.954;2022-10-31T11:39:59;24.80;47.00
37232;DHT22;23125;48.156;15.954;2022-10-31T11:42:28;24.60;47.00
37232;DHT22;23125;48.156;15.954;2022-10-31T11:44:56;24.40;47.20
37232;DHT22;23125;48.156;15.954;2022-10-31T11:47:27;24.30;47.20
37232;DHT22;23125;48.156;15.954;2022-10-31T11:49:54;24.10;48.00
37232;DHT22;23125;48.156;15.954;2022-10-31T11:52:22;23.90;47.50
37232;DHT22;23125;48.156;15.954;2022-10-31T11:55:13;23.70;47.60
37232;DHT22;23125;48.156;15.954;2022-10-31T11:57:50;23.60;47.90
37232;DHT22;23125;48.156;15.954;2022-10-31T12:00:33;23.50;48.00
37232;DHT22;23125;48.156;15.954;2022-10-31T12:03:48;23.30;48.10
37232;DHT22;23125;48.156;15.954;2022-10-31T12:06:16;23.10;48.20
37232;DHT22;23125;48.156;15.954;2022-10-31T12:08:44;23.00;48.40
37232;DHT22;23125;48.156;15.954;2022-10-31T12:14:17;22.70;48.70
37232;DHT22;23125;48.156;15.954;2022-10-31T12:30:19;22.10;49.90
37232;DHT22;23125;48.156;15.954;2022-10-31T12:33:17;22.00;50.20
37232;DHT22;23125;48.156;15.954;2022-10-31T12:41:29;21.70;50.70
37232;DHT22;23125;48.156;15.954;2022-10-31T12:44:11;21.60;51.00
37232;DHT22;23125;48.156;15.954;2022-10-31T12:55:16;21.40;51.70
37232;DHT22;23125;48.156;15.954;2022-10-31T12:57:49;21.30;51.80
37232;DHT22;23125;48.156;15.954;2022-10-31T13:00:18;21.30;51.90
37232;DHT22;23125;48.156;15.954;2022-10-31T13:02:54;21.20;52.00
37232;DHT22;23125;48.156;15.954;2022-10-31T13:05:37;21.20;52.10
37232;DHT22;23125;48.156;15.954;2022-10-31T13:08:17;21.10;52.20
37232;DHT22;23125;48.156;15.954;2022-10-31T13:10:47;21.00;52.20
37232;DHT22;23125;48.156;15.954;2022-10-31T13:13:43;21.00;52.10
37232;DHT22;23125;48.156;15.954;2022-10-31T13:16:17;20.90;52.50
37232;DHT22;23125;48.156;15.954;2022-10-31T13:19:08;20.80;52.80
37232;DHT22;23125;48.156;15.954;2022-10-31T13:21:58;20.70;53.00
37232;DHT22;23125;48.156;15.954;2022-10-31T13:27:48;20.60;53.20
37232;DHT22;23125;48.156;15.954;2022-10-31T13:30:27;20.60;53.30
37232;DHT22;23125;48.156;15.954;2022-10-31T13:35:44;20.50;53.50
37232;DHT22;23125;48.156;15.954;2022-10-31T13:44:01;20.40;53.70
37232;DHT22;23125;48.156;15.954;2022-10-31T13:46:39;20.40;53.80
37232;DHT22;23125;48.156;15.954;2022-10-31T13:52:25;20.20;54.00
37232;DHT22;23125;48.156;15.954;2022-10-31T13:54:53;20.20;54.20
37232;DHT22;23125;48.156;15.954;2022-10-31T13:57:43;20.20;54.40
37232;DHT22;23125;48.156;15.954;2022-10-31T14:00:23;20.10;54.50
37232;DHT22;23125;48.156;15.954;2022-10-31T14:02:55;20.10;54.50
37232;DHT22;23125;48.156;15.954;2022-10-31T14:05:33;20.10;54.70
37232;DHT22;23125;48.156;15.954;2022-10-31T14:08:02;20.10;54.80
37232;DHT22;23125;48.156;15.954;2022-10-31T14:13:14;20.00;54.90
37232;DHT22;23125;48.156;15.954;2022-10-31T14:15:52;20.00;55.10
37232;DHT22;23125;48.156;15.954;2022-10-31T14:18:38;19.90;55.10
37232;DHT22;23125;48.156;15.954;2022-10-31T14:23:48;19.90;55.20
37232;DHT22;23125;48.156;15.954;2022-10-31T14:28:56;19.80;55.40
37232;DHT22;23125;48.156;15.954;2022-10-31T14:31:34;19.80;55.50
37232;DHT22;23125;48.156;15.954;2022-10-31T14:47:22;19.50;55.90
37232;DHT22;23125;48.156;15.954;2022-10-31T14:52:29;19.40;56.40
37232;DHT22;23125;48.156;15.954;2022-10-31T14:54:58;19.30;56.20
37232;DHT22;23125;48.156;15.954;2022-10-31T14:57:26;19.30;56.20
37232;DHT22;23125;48.156;15.954;2022-10-31T14:59:58;19.30;56.10
37232;DHT22;23125;48.156;15.954;2022-10-31T15:02:27;19.20;56.20
37232;DHT22;23125;48.156;15.954;2022-10-31T15:04:55;19.20;56.30
37232;DHT22;23125;48.156;15.954;2022-10-31T15:07:24;19.20;56.40
37232;DHT22;23125;48.156;15.954;2022-10-31T15:10:06;19.10;56.40
37232;DHT22;23125;48.156;15.954;2022-10-31T15:12:44;19.10;56.40
37232;DHT22;23125;48.156;15.954;2022-10-31T15:15:21;19.10;56.50
37232;DHT22;23125;48.156;15.954;2022-10-31T15:17:58;19.00;56.60
37232;DHT22;23125;48.156;15.954;2022-10-31T15:20:27;19.00;56.70
37232;DHT22;23125;48.156;15.954;2022-10-31T15:22:56;19.00;56.70
37232;DHT22;23125;48.156;15.954;2022-10-31T15:25:24;19.00;56.80
37232;DHT22;23125;48.156;15.954;2022-10-31T15:27:52;18.90;56.70
37232;DHT22;23125;48.156;15.954;2022-10-31T15:30:24;18.90;56.70
37232;DHT22;23125;48.156;15.954;2022-10-31T15:32:50;18.80;56.70
37232;DHT22;23125;48.156;15.954;2022-10-31T15:35:25;18.70;56.60
37232;DHT22;23125;48.156;15.954;2022-10-31T15:37:52;18.60;56.50
37232;DHT22;23125;48.156;15.954;2022-10-31T15:40:21;18.50;56.60
37232;DHT22;23125;48.156;15.954;2022-10-31T15:43:00;18.40;56.70
37232;DHT22;23125;48.156;15.954;2022-10-31T15:45:28;18.30;57.00
37232;DHT22;23125;48.156;15.954;2022-10-31T15:48:17;18.20;57.30
37232;DHT22;23125;48.156;15.954;2022-10-31T15:50:52;18.10;57.20
37232;DHT22;23125;48.156;15.954;2022-10-31T15:55:59;18.00;57.30
37232;DHT22;23125;48.156;15.954;2022-10-31T15:58:26;17.90;57.60
37232;DHT22;23125;48.156;15.954;2022-10-31T16:01:05;17.90;57.90
37232;DHT22;23125;48.156;15.954;2022-10-31T16:03:33;17.80;57.80
37232;DHT22;23125;48.156;15.954;2022-10-31T16:06:02;17.70;57.90
37232;DHT22;23125;48.156;15.954;2022-10-31T16:13:40;17.60;58.40
37232;DHT22;23125;48.156;15.954;2022-10-31T16:16:15;17.60;58.20
37232;DHT22;23125;48.156;15.954;2022-10-31T16:18:42;17.50;58.20
37232;DHT22;23125;48.156;15.954;2022-10-31T16:21:09;17.50;58.40
37232;DHT22;23125;48.156;15.954;2022-10-31T16:23:37;17.40;58.50
37232;DHT22;23125;48.156;15.954;2022-10-31T16:26:08;17.40;58.60
37232;DHT22;23125;48.156;15.954;2022-10-31T16:28:33;17.40;58.50
37232;DHT22;23125;48.156;15.954;2022-10-31T16:31:01;17.30;58.50
37232;DHT22;23125;48.156;15.954;2022-10-31T16:33:35;17.30;58.70
37232;DHT22;23125;48.156;15.954;2022-10-31T16:38:57;17.20;59.30
37232;DHT22;23125;48.156;15.954;2022-10-31T16:41:23;17.20;59.40
37232;DHT22;23125;48.156;15.954;2022-10-31T16:43:49;17.20;59.40
37232;DHT22;23125;48.156;15.954;2022-10-31T16:46:26;17.20;59.50
37232;DHT22;23125;48.156;15.954;2022-10-31T16:48:53;17.20;59.50
37232;DHT22;23125;48.156;15.954;2022-10-31T16:51:20;17.30;59.60
37232;DHT22;23125;48.156;15.954;2022-10-31T16:53:45;17.30;59.60
37232;DHT22;23125;48.156;15.954;2022-10-31T16:56:17;17.30;59.60
37232;DHT22;23125;48.156;15.954;2022-10-31T16:58:44;17.30;59.70
37232;DHT22;23125;48.156;15.954;2022-10-31T17:01:11;17.30;59.70
37232;DHT22;23125;48.156;15.954;2022-10-31T17:03:38;17.30;59.60
37232;DHT22;23125;48.156;15.954;2022-10-31T17:06:04;17.40;59.60
37232;DHT22;23125;48.156;15.954;2022-10-31T17:08:30;17.30;59.50
37232;DHT22;23125;48.156;15.954;2022-10-31T17:10:57;17.30;59.50
37232;DHT22;23125;48.156;15.954;2022-10-31T17:13:29;17.30;59.50
37232;DHT22;23125;48.156;15.954;2022-10-31T17:15:58;17.20;59.60
37232;DHT22;23125;48.156;15.954;2022-10-31T17:18:25;17.20;59.70
37232;DHT22;23125;48.156;15.954;2022-10-31T17:20:55;17.30;59.80
37232;DHT22;23125;48.156;15.954;2022-10-31T17:23:23;17.20;59.80
37232;DHT22;23125;48.156;15.954;2022-10-31T17:25:49;17.20;59.90
37232;DHT22;23125;48.156;15.954;2022-10-31T17:28:15;17.20;60.00
37232;DHT22;23125;48.156;15.954;2022-10-31T17:30:42;17.20;59.80
37232;DHT22;23125;48.156;15.954;2022-10-31T17:33:11;17.20;59.90
37232;DHT22;23125;48.156;15.954;2022-10-31T17:35:37;17.20;60.10
37232;DHT22;23125;48.156;15.954;2022-10-31T17:38:03;17.20;60.10
37232;DHT22;23125;48.156;15.954;2022-10-31T17:40:29;17.20;60.00
37232;DHT22;23125;48.156;15.954;2022-10-31T17:42:56;17.10;60.20
37232;DHT22;23125;48.156;15.954;2022-10-31T17:45:24;17.10;60.40
37232;DHT22;23125;48.156;15.954;2022-10-31T17:47:51;17.10;60.30
37232;DHT22;23125;48.156;15.954;2022-10-31T17:50:20;17.10;60.20